Time;durP1;ratioP1;P1;durP2;ratioP2;P2;SDS_P1;SDS_P2;PMS_P1;PMS_P2;Temp;Humidity;BMP_temperature;BMP_pressure;BME280_temperature;BME280_humidity;BME280_pressure;Samples;Min_cycle;Max_cycle;Signal;HPM_P1;HPM_P2
2021/05/28 00:01:54;;;;;;;44.95;17.27;;;;;;;4.17;100.00;102361.56;5232558;28;20034;-84
2021/05/28 00:04:24;;;;;;;35.72;16.02;;;;;;;4.12;100.00;102355.66;5246299;28;20025;-84
2021/05/28 00:06:55;;;;;;;32.92;15.30;;;;;;;4.11;100.00;102360.09;5246017;28;20100;-84
2021/05/28 00:09:25;;;;;;;41.92;14.98;;;;;;;4.05;100.00;102349.81;5245459;28;20472;-84
2021/05/28 00:11:56;;;;;;;34.63;15.13;;;;;;;4.06;100.00;102361.28;5246064;28;20103;-84
2021/05/28 00:14:27;;;;;;;41.20;16.25;;;;;;;4.02;100.00;102354.47;5246088;28;20021;-84
2021/05/28 00:16:58;;;;;;;32.08;14.10;;;;;;;3.96;100.00;102354.78;5237264;28;20020;-84
2021/05/28 00:19:28;;;;;;;374.02;30.08;;;;;;;3.98;100.00;102360.91;5245796;28;20024;-84
2021/05/28 00:21:59;;;;;;;1999.90;277.48;;;;;;;4.57;100.00;102356.59;5245538;28;20028;-84
2021/05/28 00:24:29;;;;;;;120.80;53.58;;;;;;;5.58;100.00;102356.56;5246040;28;20032;-84
2021/05/28 00:27:00;;;;;;;73.78;29.42;;;;;;;5.94;100.00;102353.38;5246408;28;20479;-84
2021/05/28 00:29:30;;;;;;;55.83;23.85;;;;;;;5.72;100.00;102361.00;5246119;28;20039;-84
2021/05/28 00:32:02;;;;;;;38.85;17.33;;;;;;;5.43;100.00;102361.06;5247244;28;20107;-84
2021/05/28 00:34:32;;;;;;;46.65;18.02;;;;;;;5.29;100.00;102361.06;5233010;28;20024;-84
2021/05/28 00:37:03;;;;;;;1949.35;280.05;;;;;;;5.68;100.00;102356.84;5246274;28;20037;-84
2021/05/28 00:39:33;;;;;;;1999.90;644.47;;;;;;;6.17;100.00;102349.19;5246720;28;20267;-84
2021/05/28 00:42:04;;;;;;;199.60;101.32;;;;;;;6.59;100.00;102354.47;5246349;28;20377;-84
2021/05/28 00:44:38;;;;;;;1937.53;250.88;;;;;;;6.80;100.00;102352.16;5246411;28;20468;-84
2021/05/28 00:47:09;;;;;;;28.67;14.75;;;;;;;6.60;100.00;102356.16;5245759;28;20079;-84
2021/05/28 00:49:39;;;;;;;27.42;12.93;;;;;;;5.92;100.00;102357.97;5246174;28;20483;-84
2021/05/28 00:52:12;;;;;;;21.63;10.00;;;;;;;5.55;100.00;102351.44;5245991;28;20099;-84
2021/05/28 00:54:43;;;;;;;23.90;10.70;;;;;;;5.31;100.00;102351.16;5246184;28;20032;-84
2021/05/28 00:57:13;;;;;;;633.33;89.55;;;;;;;5.55;100.00;102350.56;5245829;28;20021;-84
2021/05/28 00:59:44;;;;;;;1999.90;623.30;;;;;;;6.21;100.00;102349.88;5245235;28;20480;-84
2021/05/28 01:02:15;;;;;;;29.55;13.63;;;;;;;6.33;100.00;102357.06;5246237;28;20035;-84
2021/05/28 01:04:46;;;;;;;15.20;8.75;;;;;;;5.89;100.00;102360.78;5245879;28;20028;-84
2021/05/28 01:07:17;;;;;;;30.77;16.25;;;;;;;5.57;100.00;102346.88;5246300;28;20456;-84
2021/05/28 01:09:58;;;;;;;11.57;6.18;;;;;;;5.11;100.00;102351.53;5245993;28;20024;-84
2021/05/28 01:12:30;;;;;;;19.42;8.63;;;;;;;4.94;100.00;102352.56;5247419;28;20415;-84
2021/05/28 01:15:00;;;;;;;18.90;9.57;;;;;;;4.81;100.00;102355.09;5245702;28;20094;-84
2021/05/28 01:17:31;;;;;;;1999.90;305.60;;;;;;;4.98;100.00;102355.91;5240408;28;20108;-84
2021/05/28 01:20:05;;;;;;;1999.90;462.38;;;;;;;5.86;100.00;102360.13;5246152;28;20031;-84
2021/05/28 01:22:37;;;;;;;1999.90;744.83;;;;;;;5.93;100.00;102361.50;5245997;28;20071;-84
2021/05/28 01:25:08;;;;;;;43.70;18.52;;;;;;;5.77;100.00;102366.88;5246393;28;20029;-84
2021/05/28 01:27:39;;;;;;;21.50;10.90;;;;;;;5.43;100.00;102361.06;5245853;28;20506;-84
2021/05/28 01:30:10;;;;;;;19.17;8.95;;;;;;;5.11;100.00;102362.19;5244864;28;20020;-84
2021/05/28 01:32:42;;;;;;;21.08;9.32;;;;;;;4.95;100.00;102359.59;5245681;28;20014;-84
2021/05/28 01:35:14;;;;;;;36.72;13.88;;;;;;;4.97;100.00;102360.38;5248970;28;20028;-84
2021/05/28 01:37:46;;;;;;;1999.90;657.40;;;;;;;5.23;100.00;102357.94;5246058;28;20017;-83
2021/05/28 01:40:20;;;;;;;547.40;72.28;;;;;;;5.42;100.00;102366.44;5245359;28;20438;-84
2021/05/28 01:42:51;;;;;;;23.90;11.20;;;;;;;5.25;100.00;102364.00;5249905;28;20032;-84
2021/05/28 01:45:21;;;;;;;32.13;13.20;;;;;;;5.00;100.00;102362.84;5249146;28;20029;-84
2021/05/28 01:48:03;;;;;;;19.67;10.30;;;;;;;4.84;100.00;102367.38;5249916;28;20491;-84
2021/05/28 01:50:44;;;;;;;25.08;12.38;;;;;;;4.67;100.00;102358.63;5249509;28;20487;-84
2021/05/28 01:53:18;;;;;;;27.63;12.07;;;;;;;4.58;100.00;102369.78;5249701;28;20039;-84
2021/05/28 01:55:54;;;;;;;31.83;13.57;;;;;;;4.48;100.00;102378.38;5249164;28;20403;-84
2021/05/28 01:58:29;;;;;;;1999.90;327.08;;;;;;;4.45;100.00;102373.25;5249857;28;20032;-84
2021/05/28 02:01:00;;;;;;;1538.88;185.02;;;;;;;4.66;100.00;102370.16;5249097;28;20031;-84
2021/05/28 02:03:30;;;;;;;1805.18;205.00;;;;;;;5.13;100.00;102376.25;5248840;28;20024;-84
2021/05/28 02:06:01;;;;;;;40.50;18.73;;;;;;;5.21;100.00;102379.28;5247937;28;20100;-84
2021/05/28 02:08:32;;;;;;;751.35;179.85;;;;;;;5.60;100.00;102372.44;5248332;28;20028;-84
2021/05/28 02:11:03;;;;;;;1455.53;157.88;;;;;;;5.57;100.00;102375.28;5248618;28;20077;-84
2021/05/28 02:13:34;;;;;;;17.10;9.85;;;;;;;5.29;100.00;102377.03;5249154;28;20100;-84
2021/05/28 02:16:06;;;;;;;858.88;129.27;;;;;;;5.61;100.00;102374.16;5248738;28;20021;-84
2021/05/28 02:18:36;;;;;;;779.13;97.97;;;;;;;5.78;100.00;102373.94;5248089;28;20031;-84
2021/05/28 02:21:07;;;;;;;74.78;15.02;;;;;;;5.60;100.00;102377.75;5247833;28;20025;-84
2021/05/28 02:23:37;;;;;;;1999.90;718.80;;;;;;;5.46;100.00;102382.13;5246987;28;20027;-84
2021/05/28 02:26:08;;;;;;;24.20;12.27;;;;;;;5.44;100.00;102377.88;5247874;28;20408;-84
2021/05/28 02:28:38;;;;;;;18.88;9.80;;;;;;;5.16;100.00;102376.91;5248207;28;20146;-84
2021/05/28 02:31:09;;;;;;;19.98;10.30;;;;;;;4.84;100.00;102378.00;5247759;28;20028;-84
2021/05/28 02:33:39;;;;;;;23.08;11.43;;;;;;;4.65;100.00;102373.78;5235177;28;20044;-84
2021/05/28 02:36:10;;;;;;;20.30;10.90;;;;;;;4.54;100.00;102372.72;5247208;28;20032;-84
2021/05/28 02:38:41;;;;;;;82.10;37.00;;;;;;;4.86;100.00;102368.97;5247747;28;20071;-84
2021/05/28 02:41:11;;;;;;;1999.90;378.13;;;;;;;5.17;100.00;102372.44;5247350;28;20032;-84
2021/05/28 02:43:42;;;;;;;1999.90;545.85;;;;;;;5.43;100.00;102384.16;5247519;28;20031;-84
2021/05/28 02:46:12;;;;;;;1999.90;496.20;;;;;;;5.57;100.00;102380.59;5247192;28;20024;-84
2021/05/28 02:48:43;;;;;;;26.60;12.63;;;;;;;5.18;100.00;102377.69;5247515;28;20020;-84
2021/05/28 02:51:13;;;;;;;14.40;8.20;;;;;;;4.90;100.00;102373.16;5247288;28;20032;-84
2021/05/28 02:53:44;;;;;;;16.35;8.80;;;;;;;4.63;100.00;102374.84;5247112;28;20095;-84
2021/05/28 02:56:14;;;;;;;12.20;7.63;;;;;;;4.45;100.00;102381.22;5246907;28;20055;-84
2021/05/28 02:58:45;;;;;;;13.88;8.23;;;;;;;4.29;100.00;102379.44;5247390;28;20013;-84
2021/05/28 03:01:15;;;;;;;13.32;7.80;;;;;;;4.18;100.00;102376.56;5246906;28;20549;-84
2021/05/28 03:03:46;;;;;;;1999.90;608.55;;;;;;;4.31;100.00;102387.31;5262732;28;20065;-84
2021/05/28 03:06:16;;;;;;;24.70;12.77;;;;;;;4.63;100.00;102388.13;5247389;28;20103;-84
2021/05/28 03:08:47;;;;;;;24.15;11.20;;;;;;;4.48;100.00;102392.53;5246740;28;20507;-84
2021/05/28 03:11:17;;;;;;;27.38;11.20;;;;;;;4.42;100.00;102400.88;5246604;28;20468;-84
2021/05/28 03:13:48;;;;;;;27.02;12.40;;;;;;;4.32;100.00;102394.38;5246806;28;20033;-84
2021/05/28 03:16:18;;;;;;;19.77;11.27;;;;;;;4.21;100.00;102394.94;5246573;28;20506;-84
2021/05/28 03:18:52;;;;;;;24.27;11.48;;;;;;;4.14;100.00;102397.13;5247267;28;20382;-84
2021/05/28 03:21:37;;;;;;;20.45;11.05;;;;;;;4.26;100.00;102398.22;5246361;28;20491;-84
2021/05/28 03:24:07;;;;;;;20.13;10.75;;;;;;;4.20;100.00;102403.88;5246567;28;20478;-84
2021/05/28 03:26:38;;;;;;;20.08;11.38;;;;;;;4.16;100.00;102402.34;5246597;28;20127;-84
2021/05/28 03:29:08;;;;;;;22.52;10.05;;;;;;;4.12;100.00;102406.13;5245984;28;20099;-84
2021/05/28 03:31:39;;;;;;;19.27;10.75;;;;;;;4.04;100.00;102408.34;5247551;28;20506;-84
2021/05/28 03:34:09;;;;;;;19.77;8.90;;;;;;;3.96;100.00;102407.91;5247774;28;20027;-84
2021/05/28 03:36:40;;;;;;;1999.90;527.30;;;;;;;4.22;100.00;102403.78;5246540;28;20503;-84
2021/05/28 03:39:11;;;;;;;1999.90;529.33;;;;;;;4.82;100.00;102402.03;5247561;28;20099;-84
2021/05/28 03:41:41;;;;;;;107.50;25.52;;;;;;;5.07;100.00;102397.88;5247555;28;20730;-84
2021/05/28 03:44:12;;;;;;;24.80;8.68;;;;;;;4.73;100.00;102393.75;5247073;28;20036;-84
2021/05/28 03:46:42;;;;;;;20.77;8.13;;;;;;;4.52;100.00;102396.72;5247193;28;20016;-84
2021/05/28 03:49:13;;;;;;;15.15;7.53;;;;;;;4.35;100.00;102389.72;5246989;28;20029;-84
2021/05/28 03:51:43;;;;;;;13.30;6.78;;;;;;;4.23;100.00;102402.84;5247516;28;20024;-84
2021/05/28 03:54:14;;;;;;;42.35;8.48;;;;;;;4.06;100.00;102393.16;5247528;28;20032;-84
2021/05/28 03:56:44;;;;;;;40.80;9.20;;;;;;;3.99;100.00;102399.78;5246230;28;20032;-83
2021/05/28 03:59:15;;;;;;;19.77;8.18;;;;;;;3.99;100.00;102402.44;5247401;28;20024;-84
2021/05/28 04:01:47;;;;;;;20.00;8.52;;;;;;;3.97;100.00;102405.19;5247627;28;20032;-84
2021/05/28 04:04:17;;;;;;;19.17;9.50;;;;;;;3.96;100.00;102402.59;5247563;28;20016;-84
2021/05/28 04:06:48;;;;;;;21.55;10.15;;;;;;;3.92;100.00;102411.69;5247662;28;20055;-84
2021/05/28 04:09:18;;;;;;;22.17;9.00;;;;;;;3.96;100.00;102410.56;5246808;28;20033;-84
2021/05/28 04:11:49;;;;;;;24.73;10.80;;;;;;;4.12;100.00;102414.09;5247244;28;20407;-83
2021/05/28 04:14:19;;;;;;;23.45;9.18;;;;;;;4.24;100.00;102412.53;5247544;28;20025;-84
2021/05/28 04:16:50;;;;;;;21.15;10.68;;;;;;;4.32;100.00;102412.97;5238591;28;20402;-84
2021/05/28 04:19:20;;;;;;;23.05;9.65;;;;;;;4.39;100.00;102411.66;5246816;28;20107;-84
2021/05/28 04:21:51;;;;;;;26.08;9.80;;;;;;;4.50;100.00;102416.34;5247187;28;20035;-84
2021/05/28 04:24:21;;;;;;;20.58;9.00;;;;;;;4.51;100.00;102418.06;5247058;28;20120;-84
2021/05/28 04:26:52;;;;;;;19.55;8.93;;;;;;;4.56;100.00;102413.34;5246836;28;20047;-84
2021/05/28 04:29:22;;;;;;;26.73;8.38;;;;;;;4.60;100.00;102415.72;5246507;28;20037;-84
2021/05/28 04:31:53;;;;;;;14.25;8.60;;;;;;;4.67;100.00;102417.09;5247603;28;20507;-84
2021/05/28 04:34:24;;;;;;;18.42;8.57;;;;;;;4.71;100.00;102425.72;5245475;28;20027;-84
2021/05/28 04:36:54;;;;;;;15.00;7.28;;;;;;;4.87;100.00;102425.69;5260995;28;20028;-84
2021/05/28 04:39:26;;;;;;;23.77;9.93;;;;;;;5.01;100.00;102431.03;5245114;28;20032;-84
2021/05/28 04:41:57;;;;;;;17.75;10.15;;;;;;;5.22;100.00;102434.25;5245312;28;20033;-84
2021/05/28 04:44:27;;;;;;;34.97;14.20;;;;;;;5.49;100.00;102439.66;5245123;28;20032;-84
2021/05/28 04:46:58;;;;;;;31.48;11.63;;;;;;;5.60;100.00;102441.66;5245720;28;20074;-84
2021/05/28 04:49:29;;;;;;;21.98;11.57;;;;;;;5.81;100.00;102455.44;5245119;28;20488;-84
2021/05/28 04:52:00;;;;;;;32.08;14.15;;;;;;;5.97;100.00;102454.44;5246042;28;20031;-84
2021/05/28 04:54:32;;;;;;;32.72;13.68;;;;;;;6.11;100.00;102460.69;5245259;28;20384;-84
2021/05/28 04:57:02;;;;;;;29.50;13.77;;;;;;;6.23;100.00;102451.91;5244887;28;20028;-84
2021/05/28 04:59:32;;;;;;;285.05;50.20;;;;;;;6.55;100.00;102455.13;5244943;28;20036;-84
2021/05/28 05:02:05;;;;;;;26.80;12.23;;;;;;;6.74;100.00;102454.78;5245010;28;20498;-84
2021/05/28 05:04:35;;;;;;;30.50;12.45;;;;;;;6.73;100.00;102458.41;5245100;28;20582;-84
2021/05/28 05:07:06;;;;;;;22.58;11.57;;;;;;;6.76;100.00;102460.84;5245107;28;20131;-84
2021/05/28 05:09:36;;;;;;;26.42;13.18;;;;;;;6.96;100.00;102463.03;5248003;28;20098;-84
2021/05/28 05:12:07;;;;;;;22.98;12.55;;;;;;;7.02;100.00;102461.75;5249480;28;20491;-85
2021/05/28 05:14:38;;;;;;;24.73;12.30;;;;;;;7.16;100.00;102461.69;5249074;28;20472;-84
2021/05/28 05:17:08;;;;;;;28.83;12.73;;;;;;;7.31;100.00;102470.47;5240736;28;20115;-84
2021/05/28 05:19:39;;;;;;;24.98;12.98;;;;;;;7.53;100.00;102465.34;5248808;28;20024;-85
2021/05/28 05:22:09;;;;;;;31.48;13.75;;;;;;;7.99;100.00;102471.94;5247793;28;20028;-85
2021/05/28 05:24:40;;;;;;;30.08;12.63;;;;;;;9.13;100.00;102465.25;5249126;28;20033;-84
2021/05/28 05:27:10;;;;;;;19.88;11.85;;;;;;;10.34;100.00;102475.34;5249018;28;20494;-84
2021/05/28 05:29:41;;;;;;;27.02;12.43;;;;;;;10.81;100.00;102472.38;5248702;28;20020;-85
2021/05/28 05:32:11;;;;;;;25.20;11.75;;;;;;;10.71;100.00;102466.09;5248784;28;20028;-85
2021/05/28 05:34:42;;;;;;;22.35;11.68;;;;;;;10.61;100.00;102482.94;5248355;28;20028;-85
2021/05/28 05:37:12;;;;;;;39.75;14.02;;;;;;;10.53;100.00;102484.53;5248458;28;20487;-85
2021/05/28 05:39:43;;;;;;;38.25;15.55;;;;;;;10.45;100.00;102482.50;5248420;28;20028;-85
2021/05/28 05:42:13;;;;;;;34.22;14.88;;;;;;;10.09;100.00;102483.59;5249052;28;20527;-85
2021/05/28 05:44:44;;;;;;;38.33;16.85;;;;;;;10.03;100.00;102478.75;5248431;28;20036;-85
2021/05/28 05:47:16;;;;;;;43.45;16.35;;;;;;;9.97;100.00;102477.41;5248510;28;20493;-84
2021/05/28 05:49:46;;;;;;;54.50;18.38;;;;;;;9.86;100.00;102482.78;5248539;28;20056;-84
2021/05/28 05:52:17;;;;;;;34.97;16.58;;;;;;;9.82;100.00;102484.84;5248290;28;20033;-84
2021/05/28 05:54:47;;;;;;;39.25;16.67;;;;;;;9.68;100.00;102481.53;5248029;28;20024;-84
2021/05/28 05:57:18;;;;;;;34.45;16.23;;;;;;;9.63;100.00;102495.31;5248431;28;20039;-85
2021/05/28 05:59:49;;;;;;;39.45;18.27;;;;;;;9.43;100.00;102490.66;5244243;28;20074;-84
2021/05/28 06:02:20;;;;;;;44.50;18.08;;;;;;;9.43;100.00;102496.00;5245575;28;20036;-85
2021/05/28 06:04:50;;;;;;;33.58;16.90;;;;;;;9.46;100.00;102501.97;5244448;28;20427;-84
2021/05/28 06:07:21;;;;;;;49.05;19.20;;;;;;;9.43;100.00;102509.41;5242906;28;20024;-85
2021/05/28 06:09:51;;;;;;;41.85;18.80;;;;;;;9.39;100.00;102503.44;5246646;28;20120;-84
2021/05/28 06:12:22;;;;;;;47.85;19.92;;;;;;;9.42;100.00;102508.53;5245886;28;20563;-85
2021/05/28 06:14:53;;;;;;;37.03;16.98;;;;;;;9.71;100.00;102508.97;5245568;28;20040;-87
2021/05/28 06:17:23;;;;;;;38.75;17.92;;;;;;;9.64;100.00;102504.19;5238979;28;20025;-85
2021/05/28 06:19:54;;;;;;;41.90;18.92;;;;;;;9.79;100.00;102506.56;5246219;28;20025;-84
2021/05/28 06:22:24;;;;;;;45.65;20.27;;;;;;;9.72;100.00;102507.13;5246589;28;20025;-85
2021/05/28 06:24:55;;;;;;;39.13;17.70;;;;;;;9.91;100.00;102507.41;5247025;28;20108;-84
2021/05/28 06:27:25;;;;;;;42.45;19.02;;;;;;;9.97;100.00;102509.59;5245260;28;20063;-84
2021/05/28 06:29:57;;;;;;;46.75;20.35;;;;;;;10.00;100.00;102517.41;5246676;28;20043;-85
2021/05/28 06:32:28;;;;;;;48.97;20.35;;;;;;;9.84;100.00;102511.56;5245304;28;20036;-85
2021/05/28 06:34:58;;;;;;;43.33;19.30;;;;;;;9.88;100.00;102513.00;5244924;28;20372;-85
2021/05/28 06:37:30;;;;;;;53.05;20.58;;;;;;;9.84;100.00;102515.09;5245071;28;20032;-85
2021/05/28 06:40:00;;;;;;;44.58;19.33;;;;;;;9.69;100.00;102523.44;5246545;28;20107;-85
2021/05/28 06:42:32;;;;;;;42.90;18.63;;;;;;;10.06;100.00;102511.53;5244445;28;20111;-85
2021/05/28 06:45:03;;;;;;;49.45;19.52;;;;;;;10.18;100.00;102511.53;5246374;28;20020;-85
2021/05/28 06:47:34;;;;;;;50.00;21.02;;;;;;;10.12;100.00;102508.38;5245469;28;20020;-85
2021/05/28 06:50:05;;;;;;;47.13;20.85;;;;;;;10.19;100.00;102516.78;5246044;28;20074;-85
2021/05/28 06:52:35;;;;;;;40.95;18.35;;;;;;;10.20;100.00;102512.28;5246363;28;20104;-85
2021/05/28 06:55:07;;;;;;;46.90;19.30;;;;;;;10.22;100.00;102519.22;5246180;28;20044;-86
2021/05/28 06:57:38;;;;;;;42.22;20.73;;;;;;;10.12;100.00;102524.44;5246041;28;20074;-85
2021/05/28 07:00:10;;;;;;;50.13;19.13;;;;;;;10.31;100.00;102517.66;5246921;28;20089;-85
2021/05/28 07:02:41;;;;;;;46.17;20.33;;;;;;;10.19;100.00;102524.84;5246509;28;20113;-85
2021/05/28 07:05:12;;;;;;;44.38;18.13;;;;;;;10.83;100.00;102527.66;5247103;28;20111;-86
2021/05/28 07:07:43;;;;;;;41.67;18.52;;;;;;;10.89;100.00;102528.97;5246401;28;20403;-86
2021/05/28 07:10:13;;;;;;;49.78;21.55;;;;;;;10.70;100.00;102528.81;5246751;28;20020;-86
2021/05/28 07:12:44;;;;;;;42.67;18.83;;;;;;;10.79;100.00;102534.28;5245368;28;20027;-85
2021/05/28 07:15:15;;;;;;;43.10;19.33;;;;;;;10.89;100.00;102537.03;5241918;28;20015;-85
2021/05/28 07:17:46;;;;;;;48.88;22.65;;;;;;;10.42;100.00;102535.56;5242026;28;20033;-85
2021/05/28 07:20:17;;;;;;;50.03;22.40;;;;;;;10.74;100.00;102540.97;5246915;28;20025;-85
2021/05/28 07:22:47;;;;;;;43.80;21.25;;;;;;;11.00;100.00;102538.84;5245499;28;20407;-85
2021/05/28 07:25:18;;;;;;;57.50;21.05;;;;;;;10.78;100.00;102547.81;5238325;28;20032;-85
2021/05/28 07:27:48;;;;;;;50.40;20.33;;;;;;;10.71;100.00;102543.94;5245468;28;20036;-83
2021/05/28 07:30:20;;;;;;;51.40;21.80;;;;;;;10.88;100.00;102546.06;5249687;28;20020;-84
2021/05/28 07:32:50;;;;;;;48.55;21.30;;;;;;;11.18;100.00;102537.28;5245490;28;20403;-84
2021/05/28 07:35:24;;;;;;;54.83;20.85;;;;;;;11.49;100.00;102537.38;5244011;28;20036;-85
2021/05/28 07:37:54;;;;;;;44.90;18.92;;;;;;;11.99;100.00;102542.94;5246199;28;20073;-84
2021/05/28 07:40:25;;;;;;;46.97;18.83;;;;;;;12.13;100.00;102535.34;5246267;28;20376;-84
2021/05/28 07:42:56;;;;;;;41.40;17.73;;;;;;;12.48;100.00;102547.50;5244174;28;20033;-85
2021/05/28 07:45:27;;;;;;;31.13;13.95;;;;;;;13.02;100.00;102545.34;5246223;28;20020;-85
2021/05/28 07:47:58;;;;;;;42.60;17.40;;;;;;;12.33;100.00;102538.13;5245569;28;20052;-85
2021/05/28 07:50:44;;;;;;;35.40;16.23;;;;;;;12.49;100.00;102524.13;5244370;28;20063;-84
2021/05/28 07:53:17;;;;;;;33.25;15.90;;;;;;;13.17;100.00;102535.84;5244948;28;20530;-84
2021/05/28 07:55:49;;;;;;;36.88;16.42;;;;;;;12.87;100.00;102528.75;5246370;28;20032;-84
2021/05/28 07:58:20;;;;;;;39.95;16.92;;;;;;;13.09;100.00;102541.94;5245098;28;20056;-83
2021/05/28 08:00:51;;;;;;;35.97;13.77;;;;;;;13.50;100.00;102526.47;5246374;28;20106;-85
2021/05/28 08:03:22;;;;;;;39.17;15.85;;;;;;;13.14;100.00;102533.41;5243760;28;20496;-85
2021/05/28 08:05:52;;;;;;;33.10;16.75;;;;;;;13.07;100.00;102527.75;5244649;28;20031;-85
2021/05/28 08:08:26;;;;;;;33.85;16.85;;;;;;;13.30;100.00;102531.03;5244863;28;20472;-85
2021/05/28 08:10:57;;;;;;;36.70;15.27;;;;;;;14.07;100.00;102531.84;5243673;28;20080;-85
2021/05/28 08:13:28;;;;;;;33.47;14.82;;;;;;;14.62;100.00;102527.34;5243492;28;20033;-85
2021/05/28 08:15:59;;;;;;;30.80;15.18;;;;;;;14.49;100.00;102527.69;5245173;28;20040;-85
2021/05/28 08:18:30;;;;;;;31.90;14.68;;;;;;;14.49;100.00;102533.06;5243679;28;20032;-84
2021/05/28 08:21:02;;;;;;;32.35;15.05;;;;;;;14.43;100.00;102536.34;5246920;28;20033;-85
2021/05/28 08:23:33;;;;;;;36.30;15.63;;;;;;;14.57;100.00;102545.00;5245291;28;20021;-85
2021/05/28 08:26:03;;;;;;;31.98;12.38;;;;;;;14.48;100.00;102541.34;5244041;28;20510;-85
2021/05/28 08:28:35;;;;;;;29.15;13.68;;;;;;;14.67;100.00;102546.63;5245260;28;20028;-86
2021/05/28 08:31:07;;;;;;;31.98;13.93;;;;;;;14.20;100.00;102545.84;5230793;28;20182;-85
2021/05/28 08:33:38;;;;;;;28.20;12.65;;;;;;;14.65;100.00;102548.63;5244572;28;20070;-85
2021/05/28 08:36:09;;;;;;;24.25;12.43;;;;;;;14.02;100.00;102539.53;5244248;28;20479;-85
2021/05/28 08:38:40;;;;;;;23.63;12.70;;;;;;;13.89;100.00;102532.63;5244613;28;20039;-85
2021/05/28 08:41:10;;;;;;;29.50;13.30;;;;;;;14.00;100.00;102526.19;5244377;28;20107;-86
2021/05/28 08:43:43;;;;;;;32.40;14.07;;;;;;;14.63;100.00;102529.03;5242334;28;20028;-86
2021/05/28 08:46:15;;;;;;;25.45;11.13;;;;;;;15.10;100.00;102523.41;5243597;28;20028;-85
2021/05/28 08:48:48;;;;;;;28.98;12.80;;;;;;;15.38;100.00;102513.34;5244287;28;20017;-85
2021/05/28 08:51:19;;;;;;;30.23;12.93;;;;;;;14.91;100.00;102513.63;5244032;28;20446;-86
2021/05/28 08:53:49;;;;;;;24.02;11.45;;;;;;;15.18;100.00;102509.13;5243870;28;20050;-85
2021/05/28 08:56:20;;;;;;;26.35;12.02;;;;;;;15.58;100.00;102514.00;5244111;28;20082;-85
2021/05/28 08:58:50;;;;;;;27.20;12.60;;;;;;;15.94;100.00;102501.22;5243808;28;20020;-85
2021/05/28 09:01:20;;;;;;;25.08;10.07;;;;;;;16.58;100.00;102515.16;5243329;28;20039;-86
2021/05/28 09:03:59;;;;;;;23.38;10.95;;;;;;;16.49;100.00;102516.16;5243696;28;20024;-86
2021/05/28 09:06:38;;;;;;;21.85;11.00;;;;;;;16.38;100.00;102509.19;5249018;28;20033;-85
2021/05/28 09:09:11;;;;;;;17.83;8.52;;;;;;;16.66;100.00;102509.75;5263849;28;20016;-85
2021/05/28 09:12:01;;;;;;;17.33;8.00;;;;;;;16.40;100.00;102506.31;5264504;28;20029;-86
2021/05/28 09:14:31;;;;;;;16.75;6.70;;;;;;;16.21;100.00;102505.53;5263957;28;20036;-86
2021/05/28 09:17:04;;;;;;;18.13;7.93;;;;;;;15.95;100.00;102502.06;5262275;28;20023;-85
2021/05/28 09:19:36;;;;;;;15.65;6.80;;;;;;;16.00;100.00;102497.84;5263028;28;20519;-85
2021/05/28 09:22:09;;;;;;;12.60;6.63;;;;;;;16.57;100.00;102500.78;5263038;28;20054;-84
2021/05/28 09:24:42;;;;;;;17.27;6.75;;;;;;;16.79;100.00;102498.47;5261628;28;20088;-85
2021/05/28 09:27:22;;;;;;;14.55;6.40;;;;;;;16.67;100.00;102497.09;5261765;28;20021;-85
2021/05/28 09:29:58;;;;;;;18.30;7.43;;;;;;;16.71;100.00;102490.28;5254266;28;20055;-85
2021/05/28 09:32:30;;;;;;;15.65;6.57;;;;;;;16.62;100.00;102483.16;5258717;28;20079;-85
2021/05/28 09:35:02;;;;;;;15.55;6.82;;;;;;;16.55;100.00;102481.13;5263633;28;20051;-85
2021/05/28 09:37:35;;;;;;;10.20;5.22;;;;;;;16.70;100.00;102488.59;5278246;28;20039;-85
2021/05/28 09:40:10;;;;;;;14.95;5.38;;;;;;;16.54;100.00;102486.72;5248737;28;20033;-85
2021/05/28 09:42:57;;;;;;;10.33;5.50;;;;;;;16.42;100.00;102494.31;5262211;28;20027;-85
2021/05/28 09:45:31;;;;;;;7.38;4.05;;;;;;;16.64;100.00;102487.41;5261473;28;20273;-85
2021/05/28 09:48:04;;;;;;;10.32;4.93;;;;;;;16.64;100.00;102478.44;5261864;28;20031;-85
2021/05/28 09:50:43;;;;;;;13.27;5.38;;;;;;;16.69;100.00;102473.34;5262521;28;20024;-85
2021/05/28 09:53:29;;;;;;;7.93;3.53;;;;;;;17.05;100.00;102477.47;5238212;28;20553;-86
2021/05/28 09:56:22;;;;;;;5.82;3.08;;;;;;;17.01;100.00;102477.97;5263123;28;20024;-84
2021/05/28 09:59:01;;;;;;;8.50;3.40;;;;;;;17.30;100.00;102474.75;5272808;28;20044;-86
2021/05/28 10:01:33;;;;;;;6.93;4.07;;;;;;;17.60;100.00;102462.31;5288312;28;20012;-86
2021/05/28 10:04:06;;;;;;;10.15;3.90;;;;;;;17.30;100.00;102470.19;5272339;28;20088;-85
2021/05/28 10:06:39;;;;;;;8.65;4.13;;;;;;;17.31;100.00;102463.72;5288158;28;20029;-85
2021/05/28 10:09:12;;;;;;;9.15;4.10;;;;;;;17.75;100.00;102463.34;5272000;28;20023;-84
2021/05/28 10:11:44;;;;;;;8.13;3.80;;;;;;;18.48;92.64;102461.31;5272528;28;20044;-87
2021/05/28 10:14:14;;;;;;;10.52;4.50;;;;;;;18.55;77.31;102465.00;5269958;28;20033;-84
2021/05/28 10:16:46;;;;;;;11.70;3.90;;;;;;;18.31;85.58;102461.38;5280348;28;20008;-85
2021/05/28 10:19:18;;;;;;;9.57;4.18;;;;;;;18.04;81.09;102464.59;5254531;28;20032;-85
2021/05/28 10:21:48;;;;;;;14.73;4.75;;;;;;;18.11;96.90;102463.69;5268814;28;20008;-84
2021/05/28 10:24:19;;;;;;;6.05;2.95;;;;;;;18.15;84.56;102455.22;5271823;28;20078;-84
2021/05/28 10:26:49;;;;;;;7.78;4.57;;;;;;;18.25;93.46;102453.97;5262066;28;20027;-85
2021/05/28 10:29:26;;;;;;;12.32;4.10;;;;;;;18.26;98.33;102454.81;5246337;28;20111;-84
2021/05/28 10:32:01;;;;;;;5.82;2.90;;;;;;;18.36;78.89;102447.28;5246626;28;20032;-85
2021/05/28 10:34:32;;;;;;;4.85;3.08;;;;;;;18.36;74.18;102441.84;5261624;28;20425;-84
2021/05/28 10:37:03;;;;;;;8.55;2.83;;;;;;;17.54;83.14;102449.47;5245929;28;20032;-84
2021/05/28 10:39:46;;;;;;;6.72;2.50;;;;;;;17.64;84.98;102441.13;5262176;28;20400;-84
2021/05/28 10:42:16;;;;;;;7.07;2.80;;;;;;;18.07;77.45;102442.50;5246457;28;20020;-84
2021/05/28 10:44:47;;;;;;;5.88;3.10;;;;;;;18.10;81.74;102434.00;5244624;28;20024;-84
2021/05/28 10:47:20;;;;;;;4.65;2.40;;;;;;;18.31;89.11;102438.81;5245738;28;20578;-84
2021/05/28 10:49:53;;;;;;;6.45;2.83;;;;;;;18.83;75.05;102435.44;5261569;28;20105;-84
2021/05/28 10:52:34;;;;;;;4.85;3.20;;;;;;;18.57;97.39;102443.91;5246278;28;20024;-84
2021/05/28 10:55:10;;;;;;;6.57;3.20;;;;;;;18.93;84.42;102433.31;5244918;28;20380;-85
2021/05/28 10:57:53;;;;;;;5.28;2.53;;;;;;;19.45;76.60;102418.84;5252150;28;20043;-85
2021/05/28 11:00:27;;;;;;;5.22;2.85;;;;;;;19.72;75.62;102431.00;5249140;28;20085;-84
2021/05/28 11:03:08;;;;;;;9.18;3.33;;;;;;;19.83;69.45;102426.94;5247213;28;20024;-85
2021/05/28 11:05:47;;;;;;;5.30;3.10;;;;;;;19.95;69.78;102421.88;5247440;28;20488;-84
2021/05/28 11:08:35;;;;;;;7.75;3.20;;;;;;;19.66;68.38;102416.25;5248172;28;20047;-84
2021/05/28 11:11:06;;;;;;;11.40;4.18;;;;;;;19.33;69.27;102412.19;5247634;28;20074;-84
2021/05/28 11:13:57;;;;;;;9.13;3.80;;;;;;;18.86;65.25;102419.59;5246079;28;20020;-84
2021/05/28 11:16:28;;;;;;;9.68;3.88;;;;;;;18.80;71.85;102412.16;5246008;28;20149;-84
2021/05/28 11:18:59;;;;;;;9.73;4.20;;;;;;;18.88;79.15;102409.41;5246919;28;20738;-84
2021/05/28 11:21:39;;;;;;;5.32;3.00;;;;;;;18.87;77.87;102406.84;5247662;28;20029;-84
2021/05/28 11:24:09;;;;;;;19.70;3.08;;;;;;;18.75;87.18;102400.16;5244896;28;20082;-85
2021/05/28 11:26:40;;;;;;;7.25;3.10;;;;;;;18.99;79.44;102408.09;5245285;28;20464;-84
2021/05/28 11:29:19;;;;;;;5.65;3.42;;;;;;;19.47;63.57;102407.78;5244741;28;20016;-85